Airfield :
LOGIN :

Register | Disclaimer

   EN    FR    IT 

 










Legend :    VFR   Marginal VFR   IFR   Intensive IFR   Very Intensive IFR
Visi :
Ceiling :
>= 8 km
>= 3000ft
5 to 8 km
1000 to 3000 ft
1500m to 5 km
500 to 1000 ft
800 to 1500m
200 to 500 ft
< 800m
< 200 ft
Symbols :   Thunderstorms  Fog  Heavy snow  Heavy precipitations  Wind > 20 kt
SIGMETs :     Misc.  Thunderstorms  Icing  Turbulence  Mountain Waves  Volcanic Ashes






- Airport Elevation : 461 ft
- IATA code : WIE


ETOU - Wiesbaden Army

CURRENT METAR :
  • 171937Z AUTO 18008KT 9999 -RA BKN005 OVC021 14/13 A2990 RMK AO2 CIG 005V007 BKN V OVC SLP127 $

EXPIRED METARs :
  • 171926Z AUTO 18008KT 9999 -RA OVC009 14/13 A2990 RMK AO2 CIG 005 RWY07 SLP127 $
  • 171916Z AUTO 18007KT 9999 -RA OVC008 14/14 A2991 RMK AO2 CIG 005 RWY07 SLP131 $
  • 171906Z AUTO 17006KT 9999 -RA OVC009 14/14 A2991 RMK AO2 CIG 009V011 CIG 005 RWY07 SLP131 $
  • 171856Z AUTO 18005KT 9000 -RA BR FEW006 OVC011 14/14 A2991 RMK AO2 CIG 007 RWY07 SLP131 P0009 T01420137 $
  • 171826Z AUTO 18004KT 9999 -RA FEW007 OVC012 14/14 A2992 RMK AO2 CIG 010V015 SLP134 $
  • 171811Z AUTO 19003KT 9000 -RA BR SCT007 BKN014 OVC021 14/13 A2992 RMK AO2 SLP134 $
  • 171806Z AUTO 20003KT 9000 -RA BR BKN016 OVC023 14/13 A2992 RMK AO2 SLP134 $
  • 171756Z AUTO 20004KT 9999 -RA SCT016 BKN023 BKN030 OVC037 14/13 A2992 RMK AO2 SLP134 P0009 60025 T01420134 10163 20142 53001 $

TAF TAF ETOU
Valid from the 17 at 19:00 until the 19 at 01:00 UTC


1719/1901 24004KT 9999 BKN012 OVC029 QNH2990INS
BECMG 1720/1721 19008KT 8000 -SHRA OVC015 QNH2988INS
BECMG 1723/1724 20010KT 9999 NSW OVC015 QNH2987INS
BECMG 1811/1812 21010KT 8000 SHRA OVC015 QNH2980INS
BECMG 1813/1814 22010KT 9999 NSW BKN045 QNH2979INS TX18/1812Z TN10/1803Z



MET'MAP, your aeronautical weather chart ! - Copyright ORBIFLY December 2007 - Disclaimer

ORBIFLY MET'MAP TEAM :

Programming & Development : Alexandra Zaïnal
Concept & Development : Baudouin d'Aumeries
Co-Development & Prog : Marc-Olivier Méhu
Technical & hardware support : Manuel Goepfert

Contact : metmap@orbifly.com




SOURCES & CREDITS :

   NOAA